Time;durP1;ratioP1;P1;durP2;ratioP2;P2;SDS_P1;SDS_P2;PMS_P1;PMS_P2;Temp;Humidity;BMP_temperature;BMP_pressure;BME280_temperature;BME280_humidity;BME280_pressure;Samples;Min_cycle;Max_cycle;Signal;HPM_P1;HPM_P2
2021/10/08 00:01:09;;;;;;;11.13;10.23;;;;;;;;;;5056897;28;20530;-60
2021/10/08 00:03:34;;;;;;;10.10;9.20;;;;;;;;;;5056408;28;20255;-58
2021/10/08 00:06:00;;;;;;;11.20;9.97;;;;;;;;;;5056772;28;20543;-59
2021/10/08 00:08:25;;;;;;;10.10;9.10;;;;;;;;;;5056634;28;20217;-60
2021/10/08 00:10:50;;;;;;;9.07;8.17;;;;;;;;;;5055887;28;20229;-59
2021/10/08 00:13:16;;;;;;;9.90;9.00;;;;;;;;;;5056710;28;20713;-59
2021/10/08 00:15:41;;;;;;;10.00;9.10;;;;;;;;;;5056216;28;20228;-59
2021/10/08 00:18:07;;;;;;;14.73;10.87;;;;;;;;;;5056695;28;20221;-59
2021/10/08 00:20:32;;;;;;;11.73;10.00;;;;;;;;;;5056414;28;20236;-59
2021/10/08 00:22:58;;;;;;;10.93;9.73;;;;;;;;;;5056128;28;20240;-59
2021/10/08 00:25:23;;;;;;;11.23;10.17;;;;;;;;;;5056540;28;20624;-60
2021/10/08 00:27:48;;;;;;;12.37;10.33;;;;;;;;;;5056243;28;20225;-61
2021/10/08 00:30:14;;;;;;;10.87;9.87;;;;;;;;;;5055795;28;20224;-59
2021/10/08 00:32:39;;;;;;;10.13;9.23;;;;;;;;;;5056203;28;20308;-59
2021/10/08 00:35:04;;;;;;;11.20;10.10;;;;;;;;;;5055278;28;20216;-59
2021/10/08 00:37:30;;;;;;;11.77;10.77;;;;;;;;;;5056418;28;20240;-58
2021/10/08 00:39:55;;;;;;;10.63;9.63;;;;;;;;;;5055809;28;20316;-59
2021/10/08 00:42:22;;;;;;;11.50;10.50;;;;;;;;;;5056411;28;20300;-59
2021/10/08 00:44:47;;;;;;;11.93;10.63;;;;;;;;;;5055856;28;20301;-59
2021/10/08 00:47:13;;;;;;;11.43;10.33;;;;;;;;;;5055146;28;20467;-59
2021/10/08 00:49:39;;;;;;;10.97;9.77;;;;;;;;;;5055760;28;20559;-59
2021/10/08 00:52:04;;;;;;;11.10;10.00;;;;;;;;;;5055990;28;20501;-59
2021/10/08 00:54:30;;;;;;;11.07;9.83;;;;;;;;;;5055755;28;20209;-59
2021/10/08 00:56:58;;;;;;;11.60;10.30;;;;;;;;;;5055656;28;20312;-59
2021/10/08 00:59:25;;;;;;;10.47;9.57;;;;;;;;;;5055833;28;20228;-59
2021/10/08 01:01:51;;;;;;;10.27;9.37;;;;;;;;;;5055225;28;20581;-59
2021/10/08 01:04:16;;;;;;;10.27;9.37;;;;;;;;;;5055675;28;20983;-59
2021/10/08 01:06:42;;;;;;;10.27;9.30;;;;;;;;;;5054520;28;20217;-59
2021/10/08 01:09:07;;;;;;;11.40;10.30;;;;;;;;;;5055798;28;20311;-59
2021/10/08 01:11:32;;;;;;;12.03;9.00;;;;;;;;;;5055382;28;20782;-59
2021/10/08 01:14:02;;;;;;;11.47;10.50;;;;;;;;;;5054224;28;20220;-59
2021/10/08 01:16:27;;;;;;;10.40;9.40;;;;;;;;;;5055446;28;20300;-59
2021/10/08 01:18:52;;;;;;;10.30;9.50;;;;;;;;;;5054372;28;20539;-58
2021/10/08 01:21:17;;;;;;;10.10;9.10;;;;;;;;;;5055613;28;20307;-59
2021/10/08 01:23:43;;;;;;;9.70;8.80;;;;;;;;;;5055195;28;20229;-59
2021/10/08 01:26:08;;;;;;;9.87;8.90;;;;;;;;;;5055411;28;20233;-59
2021/10/08 01:28:33;;;;;;;11.73;10.63;;;;;;;;;;5055365;28;20227;-59
2021/10/08 01:30:58;;;;;;;12.27;11.10;;;;;;;;;;5053613;28;20686;-59
2021/10/08 01:33:24;;;;;;;11.43;10.33;;;;;;;;;;5054995;28;20221;-59
2021/10/08 01:35:49;;;;;;;11.07;9.97;;;;;;;;;;5054682;28;20217;-59
2021/10/08 01:38:14;;;;;;;9.77;8.90;;;;;;;;;;5055121;28;20278;-59
2021/10/08 01:40:40;;;;;;;11.00;9.93;;;;;;;;;;5054348;28;20249;-59
2021/10/08 01:43:05;;;;;;;10.83;9.93;;;;;;;;;;5054532;28;20656;-59
2021/10/08 01:45:30;;;;;;;10.93;9.93;;;;;;;;;;5054828;28;20228;-60
2021/10/08 01:47:56;;;;;;;10.53;9.53;;;;;;;;;;5054389;28;20597;-59
2021/10/08 01:50:21;;;;;;;10.30;9.40;;;;;;;;;;5054909;28;20653;-59
2021/10/08 01:52:46;;;;;;;11.07;9.97;;;;;;;;;;5054377;28;20217;-59
2021/10/08 01:55:11;;;;;;;10.70;9.70;;;;;;;;;;5054656;28;20227;-59
2021/10/08 01:57:37;;;;;;;10.67;9.50;;;;;;;;;;5054912;28;20269;-59
2021/10/08 02:00:04;;;;;;;11.03;10.03;;;;;;;;;;5054290;28;20616;-59
2021/10/08 02:02:30;;;;;;;11.27;10.17;;;;;;;;;;5054858;28;20288;-60
2021/10/08 02:04:55;;;;;;;11.20;10.30;;;;;;;;;;5054182;28;20502;-59
2021/10/08 02:07:20;;;;;;;10.60;9.80;;;;;;;;;;5054696;28;20363;-59
2021/10/08 02:09:46;;;;;;;10.40;9.50;;;;;;;;;;5054154;28;20229;-59
2021/10/08 02:12:11;;;;;;;11.07;10.00;;;;;;;;;;5054319;28;20289;-59
2021/10/08 02:14:36;;;;;;;13.53;9.87;;;;;;;;;;5054337;28;20225;-60
2021/10/08 02:17:02;;;;;;;10.57;9.60;;;;;;;;;;5054089;28;20228;-58
2021/10/08 02:19:27;;;;;;;10.20;9.30;;;;;;;;;;5054531;28;20684;-59
2021/10/08 02:21:52;;;;;;;11.03;9.90;;;;;;;;;;5054062;28;20217;-58
2021/10/08 02:24:18;;;;;;;11.07;9.80;;;;;;;;;;5054337;28;20304;-60
2021/10/08 02:26:43;;;;;;;10.60;9.50;;;;;;;;;;5053961;28;20626;-58
2021/10/08 02:29:09;;;;;;;12.57;11.40;;;;;;;;;;5054103;28;20633;-59
2021/10/08 02:31:35;;;;;;;10.90;9.90;;;;;;;;;;5054173;28;20232;-59
2021/10/08 02:34:01;;;;;;;10.40;9.40;;;;;;;;;;5053819;28;20564;-60
2021/10/08 02:36:26;;;;;;;12.83;10.63;;;;;;;;;;5054065;28;20516;-59
2021/10/08 02:38:51;;;;;;;11.07;10.07;;;;;;;;;;5053645;28;20468;-59
2021/10/08 02:41:17;;;;;;;10.43;9.53;;;;;;;;;;5054136;28;20224;-59
2021/10/08 02:43:42;;;;;;;10.33;9.43;;;;;;;;;;5054291;28;20544;-59
2021/10/08 02:46:07;;;;;;;10.10;9.30;;;;;;;;;;5053503;28;20521;-60
2021/10/08 02:48:34;;;;;;;10.30;9.43;;;;;;;;;;5053991;28;20286;-59
2021/10/08 02:50:59;;;;;;;11.80;9.70;;;;;;;;;;5053683;28;20228;-59
2021/10/08 02:53:25;;;;;;;10.63;9.73;;;;;;;;;;5053894;28;20459;-58
2021/10/08 02:55:50;;;;;;;12.73;11.40;;;;;;;;;;5053434;28;20217;-60
2021/10/08 02:58:15;;;;;;;11.33;9.63;;;;;;;;;;5053967;28;20228;-59
2021/10/08 03:00:41;;;;;;;10.27;9.27;;;;;;;;;;5053061;28;20366;-59
2021/10/08 03:03:06;;;;;;;11.87;10.50;;;;;;;;;;5053382;28;20216;-59
2021/10/08 03:05:31;;;;;;;12.90;11.60;;;;;;;;;;5053976;28;20229;-59
2021/10/08 03:07:56;;;;;;;11.00;10.00;;;;;;;;;;5053466;28;20217;-59
2021/10/08 03:10:22;;;;;;;13.27;12.07;;;;;;;;;;5053493;28;20287;-59
2021/10/08 03:12:47;;;;;;;12.00;10.90;;;;;;;;;;5053522;28;20579;-59
2021/10/08 03:15:13;;;;;;;12.70;10.80;;;;;;;;;;5054081;28;20229;-59
2021/10/08 03:17:39;;;;;;;13.63;12.23;;;;;;;;;;5053769;28;20252;-59
2021/10/08 03:20:05;;;;;;;17.40;14.10;;;;;;;;;;5053191;28;20432;-59
2021/10/08 03:22:30;;;;;;;14.80;13.30;;;;;;;;;;5053649;28;20221;-60
2021/10/08 03:24:55;;;;;;;14.60;13.10;;;;;;;;;;5053384;28;20474;-60
2021/10/08 03:27:20;;;;;;;16.40;14.57;;;;;;;;;;5052663;28;20217;-60
2021/10/08 03:29:46;;;;;;;14.93;13.33;;;;;;;;;;5052963;28;20300;-61
2021/10/08 03:32:11;;;;;;;15.17;13.57;;;;;;;;;;5053510;28;20232;-59
2021/10/08 03:34:36;;;;;;;15.47;13.40;;;;;;;;;;5053628;28;20228;-58
2021/10/08 03:37:06;;;;;;;14.43;13.03;;;;;;;;;;5053344;28;20362;-59
2021/10/08 03:39:35;;;;;;;15.77;13.30;;;;;;;;;;5052468;28;20754;-60
2021/10/08 03:42:00;;;;;;;15.63;14.03;;;;;;;;;;5053109;28;20463;-59
2021/10/08 03:44:33;;;;;;;14.43;12.80;;;;;;;;;;5053535;28;20455;-60
2021/10/08 03:46:59;;;;;;;14.13;12.70;;;;;;;;;;5053010;28;20225;-60
2021/10/08 03:49:24;;;;;;;16.37;13.80;;;;;;;;;;5052343;28;20470;-60
2021/10/08 03:51:51;;;;;;;14.57;13.07;;;;;;;;;;5052916;28;20229;-59
2021/10/08 03:54:17;;;;;;;16.40;14.77;;;;;;;;;;5053411;28;20291;-59
2021/10/08 03:56:43;;;;;;;14.60;13.17;;;;;;;;;;5053402;28;20491;-59
2021/10/08 03:59:09;;;;;;;17.60;15.80;;;;;;;;;;5052948;28;20447;-59
2021/10/08 04:01:35;;;;;;;16.37;14.67;;;;;;;;;;5053167;28;20977;-59
2021/10/08 04:04:04;;;;;;;17.37;15.63;;;;;;;;;;5053117;28;20217;-60
2021/10/08 04:06:31;;;;;;;18.73;16.80;;;;;;;;;;5056665;28;20644;-59
2021/10/08 04:08:57;;;;;;;23.27;17.40;;;;;;;;;;5056336;28;20451;-58
2021/10/08 04:11:22;;;;;;;17.93;16.10;;;;;;;;;;5056745;28;20469;-59
2021/10/08 04:13:48;;;;;;;20.40;18.30;;;;;;;;;;5056765;28;20213;-58
2021/10/08 04:16:13;;;;;;;20.30;18.10;;;;;;;;;;5056243;28;20306;-59
2021/10/08 04:18:38;;;;;;;20.87;18.67;;;;;;;;;;5056681;28;20214;-59
2021/10/08 04:21:03;;;;;;;22.80;20.40;;;;;;;;;;5056356;28;20229;-59
2021/10/08 04:23:29;;;;;;;23.00;19.77;;;;;;;;;;5056662;28;20290;-59
2021/10/08 04:25:54;;;;;;;25.23;21.83;;;;;;;;;;5056126;28;20225;-59
2021/10/08 04:28:19;;;;;;;23.87;20.67;;;;;;;;;;5056623;28;20267;-60
2021/10/08 04:30:44;;;;;;;24.10;21.57;;;;;;;;;;5056258;28;20254;-60
2021/10/08 04:33:21;;;;;;;22.87;20.50;;;;;;;;;;5055916;28;20589;-59
2021/10/08 04:35:47;;;;;;;28.20;23.60;;;;;;;;;;5056618;28;20675;-59
2021/10/08 04:38:14;;;;;;;26.00;22.40;;;;;;;;;;5055790;28;20452;-58
2021/10/08 04:40:39;;;;;;;25.40;21.93;;;;;;;;;;5055187;28;20267;-58
2021/10/08 04:43:05;;;;;;;25.33;22.63;;;;;;;;;;5055770;28;20487;-60
2021/10/08 04:45:30;;;;;;;26.33;23.53;;;;;;;;;;5056348;28;20291;-59
2021/10/08 04:47:56;;;;;;;25.10;22.40;;;;;;;;;;5054854;28;20213;-60
2021/10/08 04:50:22;;;;;;;25.40;22.70;;;;;;;;;;5055949;28;20236;-59
2021/10/08 04:52:47;;;;;;;26.50;22.63;;;;;;;;;;5056190;28;20542;-60
2021/10/08 04:55:12;;;;;;;23.27;20.80;;;;;;;;;;5055558;28;20220;-58
2021/10/08 04:57:38;;;;;;;24.53;21.77;;;;;;;;;;5056106;28;20351;-60
2021/10/08 05:00:07;;;;;;;25.50;22.83;;;;;;;;;;5055592;28;20240;-60
2021/10/08 05:02:32;;;;;;;25.27;22.50;;;;;;;;;;5055955;28;20355;-60
2021/10/08 05:04:57;;;;;;;26.43;23.63;;;;;;;;;;5055376;28;20467;-59
2021/10/08 05:07:23;;;;;;;29.60;25.23;;;;;;;;;;5055923;28;20342;-59
2021/10/08 05:09:49;;;;;;;28.47;23.80;;;;;;;;;;5055692;28;20553;-59
2021/10/08 05:12:14;;;;;;;26.20;23.60;;;;;;;;;;5055407;28;20460;-59
2021/10/08 05:14:40;;;;;;;26.23;22.97;;;;;;;;;;5055679;28;20304;-59
2021/10/08 05:17:05;;;;;;;25.20;22.33;;;;;;;;;;5054118;28;20614;-59
2021/10/08 05:19:30;;;;;;;30.27;24.53;;;;;;;;;;5055626;28;20251;-59
2021/10/08 05:21:56;;;;;;;28.43;25.70;;;;;;;;;;5055208;28;20225;-59
2021/10/08 05:24:22;;;;;;;27.80;24.23;;;;;;;;;;5055623;28;20685;-59
2021/10/08 05:26:47;;;;;;;28.10;25.10;;;;;;;;;;5055374;28;20536;-59
2021/10/08 05:29:13;;;;;;;29.13;25.20;;;;;;;;;;5054986;28;20523;-58
2021/10/08 05:31:38;;;;;;;27.43;22.50;;;;;;;;;;5055369;28;20240;-59
2021/10/08 05:34:03;;;;;;;29.30;25.43;;;;;;;;;;5054864;28;20308;-59
2021/10/08 05:36:28;;;;;;;28.20;24.30;;;;;;;;;;5055336;28;20217;-59
2021/10/08 05:38:54;;;;;;;27.30;23.87;;;;;;;;;;5054825;28;20566;-60
2021/10/08 05:41:19;;;;;;;29.13;23.80;;;;;;;;;;5054906;28;20228;-59
2021/10/08 05:43:44;;;;;;;27.07;24.07;;;;;;;;;;5055304;28;20227;-59
2021/10/08 05:46:10;;;;;;;26.97;24.07;;;;;;;;;;5054769;28;20243;-61
2021/10/08 05:48:35;;;;;;;25.53;22.93;;;;;;;;;;5054925;28;20228;-59
2021/10/08 05:51:00;;;;;;;28.37;25.37;;;;;;;;;;5054280;28;20232;-59
2021/10/08 05:53:25;;;;;;;28.77;25.77;;;;;;;;;;5055016;28;20225;-59
2021/10/08 05:55:51;;;;;;;27.03;24.10;;;;;;;;;;5054845;28;20235;-59
2021/10/08 05:58:16;;;;;;;28.50;24.93;;;;;;;;;;5054313;28;20223;-59
2021/10/08 06:00:41;;;;;;;29.63;26.53;;;;;;;;;;5054538;28;20217;-60
2021/10/08 06:03:07;;;;;;;30.57;27.27;;;;;;;;;;5054274;28;20225;-60
2021/10/08 06:05:36;;;;;;;30.10;25.63;;;;;;;;;;5054675;28;20220;-59
2021/10/08 06:08:02;;;;;;;27.37;24.47;;;;;;;;;;5054319;28;20274;-60
2021/10/08 06:10:28;;;;;;;30.53;25.00;;;;;;;;;;5054229;28;20476;-60
2021/10/08 06:12:53;;;;;;;27.77;24.87;;;;;;;;;;5054522;28;20947;-60
2021/10/08 06:15:18;;;;;;;27.57;23.70;;;;;;;;;;5053785;28;20687;-60
2021/10/08 06:17:45;;;;;;;27.57;24.57;;;;;;;;;;5054555;28;20209;-60
2021/10/08 06:20:10;;;;;;;30.83;25.30;;;;;;;;;;5053896;28;20687;-61
2021/10/08 06:22:36;;;;;;;29.97;25.43;;;;;;;;;;5052331;28;20491;-65
2021/10/08 06:25:06;;;;;;;29.90;26.53;;;;;;;;;;5057673;28;20232;-65
2021/10/08 06:27:32;;;;;;;33.00;26.43;;;;;;;;;;5066464;28;20849;-60
2021/10/08 06:29:57;;;;;;;28.63;23.20;;;;;;;;;;5059875;28;20487;-61
2021/10/08 06:32:22;;;;;;;27.57;24.67;;;;;;;;;;5061790;28;20221;-61
2021/10/08 06:34:47;;;;;;;26.17;23.17;;;;;;;;;;5067568;28;20354;-61
2021/10/08 06:37:13;;;;;;;27.73;24.90;;;;;;;;;;5065280;28;20717;-59
2021/10/08 06:39:38;;;;;;;27.73;23.30;;;;;;;;;;5059256;28;20228;-61
2021/10/08 06:42:04;;;;;;;28.77;22.60;;;;;;;;;;5062003;28;20551;-60
2021/10/08 06:44:29;;;;;;;27.07;22.63;;;;;;;;;;5067168;28;20221;-60
2021/10/08 06:46:54;;;;;;;26.43;23.73;;;;;;;;;;5064922;28;20259;-60
2021/10/08 06:49:19;;;;;;;28.20;24.73;;;;;;;;;;5060094;28;20225;-60
2021/10/08 06:51:45;;;;;;;24.20;21.70;;;;;;;;;;5062831;28;20236;-60
2021/10/08 06:54:10;;;;;;;26.00;23.20;;;;;;;;;;5066650;28;20229;-60
2021/10/08 06:56:35;;;;;;;25.67;22.57;;;;;;;;;;5063975;28;20593;-60
2021/10/08 06:59:00;;;;;;;24.93;22.37;;;;;;;;;;5059756;28;20224;-60
2021/10/08 07:01:26;;;;;;;26.73;23.80;;;;;;;;;;5063672;28;20243;-60
2021/10/08 07:03:51;;;;;;;29.53;23.70;;;;;;;;;;5066046;28;20312;-60
2021/10/08 07:06:16;;;;;;;25.93;22.47;;;;;;;;;;5063037;28;20224;-61
2021/10/08 07:08:41;;;;;;;26.83;21.67;;;;;;;;;;5060031;28;20224;-60
2021/10/08 07:11:07;;;;;;;27.47;23.27;;;;;;;;;;5063480;28;20237;-60
2021/10/08 07:13:32;;;;;;;26.43;23.53;;;;;;;;;;5066053;28;20277;-60
2021/10/08 07:15:58;;;;;;;26.30;22.83;;;;;;;;;;5062646;28;20261;-60
2021/10/08 07:18:33;;;;;;;25.37;22.73;;;;;;;;;;5059585;28;20240;-61
2021/10/08 07:20:58;;;;;;;24.33;21.83;;;;;;;;;;5063529;28;20490;-59
2021/10/08 07:23:23;;;;;;;25.30;22.80;;;;;;;;;;5047880;28;20593;-60
2021/10/08 07:25:49;;;;;;;26.30;23.47;;;;;;;;;;5063113;28;20221;-60
2021/10/08 07:28:17;;;;;;;25.60;22.83;;;;;;;;;;5066563;28;20229;-60
2021/10/08 07:30:42;;;;;;;25.60;21.60;;;;;;;;;;5056263;28;20233;-60
2021/10/08 07:33:07;;;;;;;24.60;22.20;;;;;;;;;;5066573;28;20570;-60
2021/10/08 07:35:32;;;;;;;24.17;21.70;;;;;;;;;;5063720;28;20282;-60
2021/10/08 07:37:58;;;;;;;26.43;23.63;;;;;;;;;;5059650;28;20272;-59
2021/10/08 07:40:23;;;;;;;25.13;22.33;;;;;;;;;;5065020;28;20225;-60
2021/10/08 07:42:48;;;;;;;25.07;21.53;;;;;;;;;;5073479;28;20785;-59
2021/10/08 07:45:14;;;;;;;27.97;22.00;;;;;;;;;;5066867;28;20666;-59
2021/10/08 07:47:39;;;;;;;26.70;22.03;;;;;;;;;;5048126;28;20308;-59
2021/10/08 07:50:05;;;;;;;24.23;21.43;;;;;;;;;;5061893;28;20233;-61
2021/10/08 07:52:31;;;;;;;23.93;20.60;;;;;;;;;;5068150;28;20367;-60
2021/10/08 07:54:56;;;;;;;24.40;21.70;;;;;;;;;;5070345;28;20546;-59
2021/10/08 07:57:21;;;;;;;26.70;21.57;;;;;;;;;;5064644;28;20243;-59
2021/10/08 07:59:46;;;;;;;26.20;23.13;;;;;;;;;;5063251;28;20276;-60
2021/10/08 08:02:12;;;;;;;27.63;22.30;;;;;;;;;;5069309;28;20235;-60
2021/10/08 08:04:37;;;;;;;23.73;21.23;;;;;;;;;;5070371;28;20220;-59
2021/10/08 08:07:04;;;;;;;23.07;20.53;;;;;;;;;;5063805;28;20297;-59
2021/10/08 08:09:29;;;;;;;28.73;23.80;;;;;;;;;;5062749;28;20317;-59
2021/10/08 08:11:55;;;;;;;22.87;20.63;;;;;;;;;;5069473;28;20555;-60
2021/10/08 08:14:20;;;;;;;22.67;20.40;;;;;;;;;;5069931;28;20567;-59
2021/10/08 08:16:45;;;;;;;24.37;21.20;;;;;;;;;;5050032;28;20216;-59
2021/10/08 08:19:11;;;;;;;25.93;21.13;;;;;;;;;;5062513;28;20559;-60
2021/10/08 08:21:36;;;;;;;22.00;19.83;;;;;;;;;;5069742;28;20232;-59
2021/10/08 08:24:02;;;;;;;22.87;20.47;;;;;;;;;;5069530;28;20777;-59
2021/10/08 08:26:27;;;;;;;29.63;21.43;;;;;;;;;;5062558;28;20216;-60
2021/10/08 08:28:52;;;;;;;23.07;20.67;;;;;;;;;;5063824;28;20229;-60
2021/10/08 08:31:18;;;;;;;25.03;19.63;;;;;;;;;;5068946;28;20695;-60
2021/10/08 08:33:43;;;;;;;24.30;21.70;;;;;;;;;;5068753;28;20231;-60
2021/10/08 08:36:08;;;;;;;23.83;20.40;;;;;;;;;;5062714;28;20761;-60
2021/10/08 08:38:33;;;;;;;22.77;20.30;;;;;;;;;;5064183;28;20217;-60
2021/10/08 08:40:59;;;;;;;22.53;19.80;;;;;;;;;;5069539;28;20229;-60
2021/10/08 08:43:26;;;;;;;25.33;20.47;;;;;;;;;;5067673;28;20224;-59
2021/10/08 08:45:52;;;;;;;21.40;19.00;;;;;;;;;;5051407;28;20309;-59
2021/10/08 08:48:17;;;;;;;28.70;21.30;;;;;;;;;;5068858;28;20459;-59
2021/10/08 08:50:44;;;;;;;21.43;19.23;;;;;;;;;;5062638;28;20703;-60
2021/10/08 08:53:10;;;;;;;23.77;20.33;;;;;;;;;;5060889;28;20213;-59
2021/10/08 08:55:35;;;;;;;22.47;20.30;;;;;;;;;;5068479;28;20467;-60
2021/10/08 08:58:01;;;;;;;31.23;21.23;;;;;;;;;;5069077;28;20235;-59
2021/10/08 09:00:26;;;;;;;20.40;16.20;;;;;;;;;;5062699;28;20270;-60
2021/10/08 09:02:54;;;;;;;20.70;17.03;;;;;;;;;;5062121;28;20225;-60
2021/10/08 09:05:24;;;;;;;20.70;18.50;;;;;;;;;;5068070;28;20580;-59
2021/10/08 09:07:49;;;;;;;23.97;19.20;;;;;;;;;;5069169;28;20803;-59
2021/10/08 09:10:17;;;;;;;18.13;16.27;;;;;;;;;;5062585;28;20498;-59
2021/10/08 09:12:44;;;;;;;18.57;16.47;;;;;;;;;;5062254;28;20233;-59
2021/10/08 09:15:10;;;;;;;24.00;17.57;;;;;;;;;;5067118;28;20826;-61
2021/10/08 09:17:36;;;;;;;19.23;16.63;;;;;;;;;;5068796;28;20463;-60
2021/10/08 09:20:05;;;;;;;18.83;15.17;;;;;;;;;;5055719;28;20491;-61
2021/10/08 09:22:49;;;;;;;19.03;14.60;;;;;;;;;;5068653;28;20565;-60
2021/10/08 09:25:33;;;;;;;18.80;15.23;;;;;;;;;;5065425;28;20477;-60
2021/10/08 09:28:07;;;;;;;16.93;13.20;;;;;;;;;;5061685;28;20466;-59
2021/10/08 09:30:40;;;;;;;17.77;12.43;;;;;;;;;;5060975;28;20459;-60
2021/10/08 09:33:19;;;;;;;17.40;13.20;;;;;;;;;;5066993;28;20464;-62
2021/10/08 09:35:45;;;;;;;15.40;12.83;;;;;;;;;;5068186;28;20773;-62
2021/10/08 09:38:13;;;;;;;14.40;11.97;;;;;;;;;;5065244;28;20463;-63
2021/10/08 09:40:48;;;;;;;14.77;12.00;;;;;;;;;;5060843;28;20224;-62
2021/10/08 09:43:22;;;;;;;13.37;11.10;;;;;;;;;;5063797;28;20463;-61
2021/10/08 09:45:52;;;;;;;14.90;11.03;;;;;;;;;;5067069;28;20467;-61
2021/10/08 09:48:23;;;;;;;12.43;11.00;;;;;;;;;;5050721;28;20842;-62
2021/10/08 09:51:09;;;;;;;16.33;10.87;;;;;;;;;;5059967;28;20472;-62
2021/10/08 09:53:37;;;;;;;16.17;11.00;;;;;;;;;;5063259;28;20466;-61
2021/10/08 09:56:39;;;;;;;18.37;10.20;;;;;;;;;;5067099;28;20478;-62
2021/10/08 09:59:13;;;;;;;13.60;10.60;;;;;;;;;;5067426;28;20466;-62
2021/10/08 10:01:40;;;;;;;15.00;9.90;;;;;;;;;;5065190;28;20490;-62
2021/10/08 10:04:08;;;;;;;22.73;10.87;;;;;;;;;;5059968;28;20459;-61
2021/10/08 10:06:33;;;;;;;14.00;10.67;;;;;;;;;;5063541;28;20460;-63
2021/10/08 10:09:02;;;;;;;19.13;13.53;;;;;;;;;;5067727;28;20463;-62
2021/10/08 10:11:27;;;;;;;13.70;9.40;;;;;;;;;;5064670;28;20274;-62
2021/10/08 10:13:59;;;;;;;15.53;10.00;;;;;;;;;;5060820;28;20493;-62
2021/10/08 10:16:27;;;;;;;12.50;9.90;;;;;;;;;;5062692;28;20225;-62
2021/10/08 10:18:54;;;;;;;16.03;9.77;;;;;;;;;;5067648;28;20592;-62
2021/10/08 10:21:21;;;;;;;14.70;8.87;;;;;;;;;;5065828;28;20473;-60
2021/10/08 10:23:50;;;;;;;16.60;9.60;;;;;;;;;;5059661;28;20928;-60
2021/10/08 10:26:16;;;;;;;10.33;9.10;;;;;;;;;;5061204;28;20801;-59
2021/10/08 10:28:41;;;;;;;13.40;8.87;;;;;;;;;;5067388;28;20483;-59
2021/10/08 10:31:07;;;;;;;14.00;8.90;;;;;;;;;;5065971;28;20228;-60
2021/10/08 10:33:32;;;;;;;10.60;8.77;;;;;;;;;;5060414;28;20228;-59
2021/10/08 10:36:00;;;;;;;12.97;9.03;;;;;;;;;;5061988;28;20265;-60
2021/10/08 10:38:34;;;;;;;18.63;10.30;;;;;;;;;;5067076;28;20304;-58
2021/10/08 10:41:08;;;;;;;20.30;9.63;;;;;;;;;;5067287;28;20894;-59
2021/10/08 10:43:48;;;;;;;13.47;8.77;;;;;;;;;;5061353;28;20459;-60
2021/10/08 10:46:28;;;;;;;14.53;10.00;;;;;;;;;;5052798;28;20758;-59
2021/10/08 10:49:27;;;;;;;14.40;10.77;;;;;;;;;;5059858;28;20462;-59
2021/10/08 10:51:55;;;;;;;17.30;11.30;;;;;;;;;;5054154;28;20529;-60
2021/10/08 10:57:33;;;;;;;14.93;11.07;;;;;;;;;;5060252;28;20491;-59
2021/10/08 11:00:26;;;;;;;16.57;11.93;;;;;;;;;;5053619;28;20546;-60
2021/10/08 11:03:02;;;;;;;16.37;10.43;;;;;;;;;;5047897;28;20747;-60
2021/10/08 11:05:28;;;;;;;13.73;9.40;;;;;;;;;;5059994;28;20474;-60
2021/10/08 11:08:08;;;;;;;13.17;11.07;;;;;;;;;;5064332;28;20565;-60
2021/10/08 11:10:35;;;;;;;15.90;9.77;;;;;;;;;;5066523;28;20952;-60
2021/10/08 11:13:24;;;;;;;17.33;9.80;;;;;;;;;;5064355;28;20918;-60
2021/10/08 11:16:10;;;;;;;12.10;9.37;;;;;;;;;;5052924;28;20467;-59
2021/10/08 11:18:43;;;;;;;13.53;9.80;;;;;;;;;;5064040;28;20474;-60
2021/10/08 11:21:34;;;;;;;11.50;10.30;;;;;;;;;;5066716;28;20770;-60
2021/10/08 11:24:21;;;;;;;12.17;10.70;;;;;;;;;;5052058;28;20985;-60
2021/10/08 11:27:01;;;;;;;12.07;10.57;;;;;;;;;;5063687;28;20856;-60
2021/10/08 11:29:30;;;;;;;12.20;9.73;;;;;;;;;;5064764;28;20490;-60
2021/10/08 11:32:03;;;;;;;13.60;10.83;;;;;;;;;;5070422;28;20544;-60
2021/10/08 11:34:28;;;;;;;16.00;10.77;;;;;;;;;;5070890;28;20463;-59
2021/10/08 11:36:57;;;;;;;13.10;10.50;;;;;;;;;;5064205;28;20477;-59
2021/10/08 11:39:23;;;;;;;12.70;10.00;;;;;;;;;;5063652;28;20221;-59
2021/10/08 11:42:00;;;;;;;14.33;10.80;;;;;;;;;;5069727;28;20760;-59
2021/10/08 11:44:29;;;;;;;14.90;11.30;;;;;;;;;;5070572;28;20298;-60
2021/10/08 11:52:48;;;;;;;14.27;10.60;;;;;;;;;;5070026;28;20470;-61
2021/10/08 11:55:22;;;;;;;17.03;10.87;;;;;;;;;;5068696;28;20463;-60
2021/10/08 11:58:07;;;;;;;13.90;10.03;;;;;;;;;;5062824;28;20228;-60
2021/10/08 12:00:41;;;;;;;12.30;10.40;;;;;;;;;;5063354;28;20471;-60
2021/10/08 12:03:18;;;;;;;15.93;9.73;;;;;;;;;;5067125;28;20452;-60
2021/10/08 12:05:48;;;;;;;12.67;9.97;;;;;;;;;;5069694;28;20463;-60
2021/10/08 12:08:16;;;;;;;16.07;9.90;;;;;;;;;;5068353;28;20782;-60
2021/10/08 12:11:12;;;;;;;12.00;9.20;;;;;;;;;;5062935;28;20832;-59
2021/10/08 12:13:48;;;;;;;11.20;10.00;;;;;;;;;;5057878;28;20463;-60
2021/10/08 12:16:21;;;;;;;13.50;9.23;;;;;;;;;;5066426;28;20554;-59
2021/10/08 12:18:57;;;;;;;11.67;10.00;;;;;;;;;;5069723;28;20474;-60
2021/10/08 12:21:24;;;;;;;17.50;8.57;;;;;;;;;;5069194;28;20462;-59
2021/10/08 12:23:55;;;;;;;15.57;9.70;;;;;;;;;;5062744;28;20451;-59
2021/10/08 12:26:21;;;;;;;15.67;9.33;;;;;;;;;;5062343;28;20854;-60
2021/10/08 12:28:51;;;;;;;15.37;8.40;;;;;;;;;;5058858;28;20538;-63
2021/10/08 12:31:18;;;;;;;16.60;9.27;;;;;;;;;;5058714;28;20459;-63
2021/10/08 12:33:43;;;;;;;18.83;10.37;;;;;;;;;;5066213;28;20469;-65
2021/10/08 12:36:26;;;;;;;16.97;10.57;;;;;;;;;;5062559;28;20466;-62
2021/10/08 12:39:08;;;;;;;12.17;9.37;;;;;;;;;;5063610;28;20307;-63
2021/10/08 12:41:42;;;;;;;15.67;8.93;;;;;;;;;;5051312;28;20527;-62
2021/10/08 12:44:13;;;;;;;14.23;9.47;;;;;;;;;;5062767;28;20545;-63
2021/10/08 12:46:41;;;;;;;13.43;9.07;;;;;;;;;;5055152;28;20463;-63
2021/10/08 12:49:07;;;;;;;11.27;8.90;;;;;;;;;;5062514;28;20902;-63
2021/10/08 12:51:46;;;;;;;14.20;9.50;;;;;;;;;;5065581;28;20495;-63
2021/10/08 12:54:25;;;;;;;11.00;9.07;;;;;;;;;;5069131;28;20605;-63
2021/10/08 12:57:14;;;;;;;16.20;9.03;;;;;;;;;;5068929;28;20907;-62
2021/10/08 12:59:54;;;;;;;12.37;8.50;;;;;;;;;;5065273;28;20459;-62
2021/10/08 13:02:23;;;;;;;15.77;13.27;;;;;;;;;;5062261;28;20477;-64
2021/10/08 13:05:02;;;;;;;11.10;9.20;;;;;;;;;;5063276;28;20463;-66
2021/10/08 13:07:28;;;;;;;16.13;8.97;;;;;;;;;;5035442;28;20464;-63
2021/10/08 13:10:17;;;;;;;10.43;8.70;;;;;;;;;;5033239;28;21886;-62
2021/10/08 13:12:49;;;;;;;17.73;9.10;;;;;;;;;;5033305;28;20234;-62
2021/10/08 13:15:28;;;;;;;14.03;7.33;;;;;;;;;;5033686;28;20799;-62
2021/10/08 13:18:06;;;;;;;12.90;8.53;;;;;;;;;;5033200;28;20467;-63
2021/10/08 13:20:32;;;;;;;15.20;9.40;;;;;;;;;;5033754;28;20843;-63
2021/10/08 13:22:57;;;;;;;10.03;8.00;;;;;;;;;;5035381;28;20455;-62
2021/10/08 13:25:23;;;;;;;14.97;8.37;;;;;;;;;;5034939;28;20222;-62
2021/10/08 13:27:48;;;;;;;18.57;9.30;;;;;;;;;;5034233;28;20276;-63
2021/10/08 13:30:13;;;;;;;13.77;7.77;;;;;;;;;;5035524;28;20719;-63
2021/10/08 13:32:39;;;;;;;12.43;9.00;;;;;;;;;;5034880;28;20249;-63
2021/10/08 13:35:05;;;;;;;11.60;9.17;;;;;;;;;;5035428;28;20267;-62
2021/10/08 13:37:30;;;;;;;11.90;8.43;;;;;;;;;;5034167;28;20587;-63
2021/10/08 13:39:55;;;;;;;18.20;8.80;;;;;;;;;;5034826;28;20228;-64
2021/10/08 13:42:20;;;;;;;10.90;8.50;;;;;;;;;;5035238;28;20218;-63
2021/10/08 13:44:46;;;;;;;16.47;9.20;;;;;;;;;;5034813;28;20598;-63
2021/10/08 13:47:11;;;;;;;9.87;8.00;;;;;;;;;;5035384;28;20293;-63
2021/10/08 13:49:36;;;;;;;18.97;10.00;;;;;;;;;;5034588;28;20260;-63
2021/10/08 13:52:03;;;;;;;12.53;8.23;;;;;;;;;;5035105;28;20221;-63
2021/10/08 13:54:28;;;;;;;10.97;8.60;;;;;;;;;;5035193;28;20546;-63
2021/10/08 13:56:54;;;;;;;12.97;9.20;;;;;;;;;;5034738;28;20460;-63
2021/10/08 13:59:19;;;;;;;24.40;9.30;;;;;;;;;;5035130;28;20221;-63
2021/10/08 14:01:59;;;;;;;12.70;8.07;;;;;;;;;;5034287;28;20308;-63
2021/10/08 14:04:30;;;;;;;12.10;7.17;;;;;;;;;;5034902;28;20283;-62
2021/10/08 14:07:10;;;;;;;10.43;7.93;;;;;;;;;;5034347;28;20452;-63
2021/10/08 14:12:19;;;;;;;11.50;8.30;;;;;;;;;;5034695;28;20530;-63
2021/10/08 14:14:44;;;;;;;12.07;9.07;;;;;;;;;;5034259;28;20460;-63
2021/10/08 14:17:10;;;;;;;18.37;9.50;;;;;;;;;;5034754;28;20244;-63
2021/10/08 14:19:35;;;;;;;10.93;8.37;;;;;;;;;;5034180;28;20565;-63
2021/10/08 14:22:00;;;;;;;11.10;8.43;;;;;;;;;;5034660;28;20233;-63
2021/10/08 14:24:26;;;;;;;15.17;9.30;;;;;;;;;;5034388;28;20304;-63
2021/10/08 14:26:52;;;;;;;14.07;9.53;;;;;;;;;;5034116;28;20225;-63
2021/10/08 14:29:17;;;;;;;17.93;9.07;;;;;;;;;;5034387;28;20229;-63
2021/10/08 14:31:42;;;;;;;16.80;8.90;;;;;;;;;;5033763;28;20552;-63
2021/10/08 14:34:07;;;;;;;14.37;8.90;;;;;;;;;;5034455;28;20295;-63
2021/10/08 14:36:33;;;;;;;11.90;8.63;;;;;;;;;;5034506;28;20242;-64